sensor_id;sensor_type;location;lat;lon;timestamp;pressure;altitude;pressure_sealevel;temperature;humidity
51926;BME280;37952;51.938;15.480;2023-10-19T00:00:49;98882.02;;;6.51;65.64
51926;BME280;37952;51.938;15.480;2023-10-19T00:04:08;98881.16;;;6.51;65.79
51926;BME280;37952;51.938;15.480;2023-10-19T00:07:12;98879.13;;;6.53;65.87
51926;BME280;37952;51.938;15.480;2023-10-19T00:10:18;98876.31;;;6.53;65.86
51926;BME280;37952;51.938;15.480;2023-10-19T00:13:21;98868.55;;;6.51;65.71
51926;BME280;37952;51.938;15.480;2023-10-19T00:16:25;98854.27;;;6.46;65.77
51926;BME280;37952;51.938;15.480;2023-10-19T00:19:38;98847.38;;;6.42;65.81
51926;BME280;37952;51.938;15.480;2023-10-19T00:23:00;98841.58;;;6.36;65.85
51926;BME280;37952;51.938;15.480;2023-10-19T00:26:07;98833.98;;;6.34;65.84
51926;BME280;37952;51.938;15.480;2023-10-19T00:29:11;98825.15;;;6.30;66.18
51926;BME280;37952;51.938;15.480;2023-10-19T00:32:33;98813.38;;;6.27;66.43
51926;BME280;37952;51.938;15.480;2023-10-19T00:35:41;98802.56;;;6.27;66.42
51926;BME280;37952;51.938;15.480;2023-10-19T00:38:50;98792.13;;;6.22;66.57
51926;BME280;37952;51.938;15.480;2023-10-19T00:41:53;98785.17;;;6.19;66.60
51926;BME280;37952;51.938;15.480;2023-10-19T00:45:00;98781.41;;;6.20;66.40
51926;BME280;37952;51.938;15.480;2023-10-19T00:48:10;98781.49;;;6.22;66.32
51926;BME280;37952;51.938;15.480;2023-10-19T00:51:14;98787.77;;;6.19;66.26
51926;BME280;37952;51.938;15.480;2023-10-19T00:54:34;98782.14;;;6.17;66.50
51926;BME280;37952;51.938;15.480;2023-10-19T00:57:50;98766.36;;;6.17;66.64
51926;BME280;37952;51.938;15.480;2023-10-19T01:00:55;98753.39;;;6.18;66.63
51926;BME280;37952;51.938;15.480;2023-10-19T01:03:57;98744.64;;;6.18;66.61
51926;BME280;37952;51.938;15.480;2023-10-19T01:07:01;98735.48;;;6.19;66.57
51926;BME280;37952;51.938;15.480;2023-10-19T01:10:09;98719.52;;;6.20;66.56
51926;BME280;37952;51.938;15.480;2023-10-19T01:13:15;98714.44;;;6.17;66.48
51926;BME280;37952;51.938;15.480;2023-10-19T01:16:19;98717.23;;;6.10;66.40
51926;BME280;37952;51.938;15.480;2023-10-19T01:19:25;98727.55;;;6.11;66.68
51926;BME280;37952;51.938;15.480;2023-10-19T01:22:30;98728.36;;;6.12;66.74
51926;BME280;37952;51.938;15.480;2023-10-19T01:25:49;98723.94;;;6.12;66.68
51926;BME280;37952;51.938;15.480;2023-10-19T01:28:53;98723.17;;;6.13;66.76
51926;BME280;37952;51.938;15.480;2023-10-19T01:32:02;98712.64;;;6.14;66.67
51926;BME280;37952;51.938;15.480;2023-10-19T01:35:11;98705.43;;;6.15;66.70
51926;BME280;37952;51.938;15.480;2023-10-19T01:38:14;98700.98;;;6.13;66.67
51926;BME280;37952;51.938;15.480;2023-10-19T01:41:24;98691.79;;;6.09;66.62
51926;BME280;37952;51.938;15.480;2023-10-19T01:44:29;98681.25;;;6.07;66.77
51926;BME280;37952;51.938;15.480;2023-10-19T01:47:32;98663.46;;;6.06;67.04
51926;BME280;37952;51.938;15.480;2023-10-19T01:50:37;98663.63;;;6.12;67.08
51926;BME280;37952;51.938;15.480;2023-10-19T01:53:42;98658.54;;;6.15;67.00
51926;BME280;37952;51.938;15.480;2023-10-19T01:56:47;98661.75;;;6.17;67.00
51926;BME280;37952;51.938;15.480;2023-10-19T01:59:53;98661.50;;;6.18;66.82
51926;BME280;37952;51.938;15.480;2023-10-19T02:02:55;98653.80;;;6.15;66.77
51926;BME280;37952;51.938;15.480;2023-10-19T02:05:59;98653.02;;;6.11;66.77
51926;BME280;37952;51.938;15.480;2023-10-19T02:09:10;98650.63;;;6.10;67.04
51926;BME280;37952;51.938;15.480;2023-10-19T02:12:26;98654.15;;;6.09;67.22
51926;BME280;37952;51.938;15.480;2023-10-19T02:15:29;98646.89;;;6.11;67.23
51926;BME280;37952;51.938;15.480;2023-10-19T02:18:32;98636.13;;;6.10;67.18
51926;BME280;37952;51.938;15.480;2023-10-19T02:21:37;98629.42;;;6.08;67.19
51926;BME280;37952;51.938;15.480;2023-10-19T02:24:43;98614.66;;;6.06;67.11
51926;BME280;37952;51.938;15.480;2023-10-19T02:27:46;98612.52;;;6.00;67.06
51926;BME280;37952;51.938;15.480;2023-10-19T02:30:49;98612.98;;;5.92;67.19
51926;BME280;37952;51.938;15.480;2023-10-19T02:33:54;98610.59;;;5.88;67.36
51926;BME280;37952;51.938;15.480;2023-10-19T02:37:02;98605.73;;;5.90;67.62
51926;BME280;37952;51.938;15.480;2023-10-19T02:40:06;98600.34;;;5.93;67.62
51926;BME280;37952;51.938;15.480;2023-10-19T02:43:22;98597.08;;;5.95;67.58
51926;BME280;37952;51.938;15.480;2023-10-19T02:46:29;98584.56;;;5.91;67.40
51926;BME280;37952;51.938;15.480;2023-10-19T02:49:34;98582.09;;;5.85;67.59
51926;BME280;37952;51.938;15.480;2023-10-19T02:52:42;98581.84;;;5.81;67.45
51926;BME280;37952;51.938;15.480;2023-10-19T02:55:46;98580.20;;;5.79;67.74
51926;BME280;37952;51.938;15.480;2023-10-19T02:58:49;98583.49;;;5.82;67.85
51926;BME280;37952;51.938;15.480;2023-10-19T03:01:54;98588.34;;;5.86;67.74
51926;BME280;37952;51.938;15.480;2023-10-19T03:05:05;98587.76;;;5.87;67.72
51926;BME280;37952;51.938;15.480;2023-10-19T03:08:17;98580.95;;;5.86;67.63
51926;BME280;37952;51.938;15.480;2023-10-19T03:11:22;98574.70;;;5.86;67.65
51926;BME280;37952;51.938;15.480;2023-10-19T03:14:25;98565.20;;;5.84;67.80
51926;BME280;37952;51.938;15.480;2023-10-19T03:17:28;98558.73;;;5.81;67.77
51926;BME280;37952;51.938;15.480;2023-10-19T03:20:33;98553.24;;;5.85;68.04
51926;BME280;37952;51.938;15.480;2023-10-19T03:23:35;98548.55;;;5.85;68.14
51926;BME280;37952;51.938;15.480;2023-10-19T03:26:40;98548.16;;;5.85;67.95
51926;BME280;37952;51.938;15.480;2023-10-19T03:29:52;98544.77;;;5.84;67.86
51926;BME280;37952;51.938;15.480;2023-10-19T03:32:59;98536.05;;;5.83;67.84
51926;BME280;37952;51.938;15.480;2023-10-19T03:36:02;98541.17;;;5.82;67.82
51926;BME280;37952;51.938;15.480;2023-10-19T03:39:12;98541.23;;;5.81;67.87
51926;BME280;37952;51.938;15.480;2023-10-19T03:42:15;98542.51;;;5.83;68.10
51926;BME280;37952;51.938;15.480;2023-10-19T03:45:18;98540.67;;;5.88;68.04
51926;BME280;37952;51.938;15.480;2023-10-19T03:48:24;98532.48;;;5.90;68.03
51926;BME280;37952;51.938;15.480;2023-10-19T03:51:33;98532.13;;;5.87;67.98
51926;BME280;37952;51.938;15.480;2023-10-19T03:55:02;98526.42;;;5.83;67.91
51926;BME280;37952;51.938;15.480;2023-10-19T03:58:08;98523.48;;;5.83;67.93
51926;BME280;37952;51.938;15.480;2023-10-19T04:01:10;98524.22;;;5.79;67.90
51926;BME280;37952;51.938;15.480;2023-10-19T04:04:13;98521.61;;;5.79;67.98
51926;BME280;37952;51.938;15.480;2023-10-19T04:07:19;98518.69;;;5.81;68.24
51926;BME280;37952;51.938;15.480;2023-10-19T04:10:25;98513.61;;;5.81;68.24
51926;BME280;37952;51.938;15.480;2023-10-19T04:13:32;98505.06;;;5.81;68.16
51926;BME280;37952;51.938;15.480;2023-10-19T04:16:35;98501.42;;;5.80;68.02
51926;BME280;37952;51.938;15.480;2023-10-19T04:19:40;98500.66;;;5.78;67.93
51926;BME280;37952;51.938;15.480;2023-10-19T04:22:43;98493.47;;;5.75;67.93
51926;BME280;37952;51.938;15.480;2023-10-19T04:25:47;98482.68;;;5.75;68.15
51926;BME280;37952;51.938;15.480;2023-10-19T04:28:51;98482.56;;;5.80;68.24
51926;BME280;37952;51.938;15.480;2023-10-19T04:31:54;98475.97;;;5.82;68.16
51926;BME280;37952;51.938;15.480;2023-10-19T04:35:01;98468.60;;;5.82;68.07
51926;BME280;37952;51.938;15.480;2023-10-19T04:38:05;98465.34;;;5.84;68.06
51926;BME280;37952;51.938;15.480;2023-10-19T04:41:10;98466.30;;;5.86;67.84
51926;BME280;37952;51.938;15.480;2023-10-19T04:44:13;98456.07;;;5.84;67.86
51926;BME280;37952;51.938;15.480;2023-10-19T04:47:18;98451.92;;;5.86;67.98
51926;BME280;37952;51.938;15.480;2023-10-19T04:50:21;98446.48;;;5.89;68.11
51926;BME280;37952;51.938;15.480;2023-10-19T04:53:24;98442.60;;;5.93;68.16
51926;BME280;37952;51.938;15.480;2023-10-19T04:56:26;98435.30;;;5.92;68.00
51926;BME280;37952;51.938;15.480;2023-10-19T04:59:29;98427.95;;;5.92;67.97
51926;BME280;37952;51.938;15.480;2023-10-19T05:02:35;98421.41;;;5.90;67.87
51926;BME280;37952;51.938;15.480;2023-10-19T05:05:38;98424.07;;;5.87;67.89
51926;BME280;37952;51.938;15.480;2023-10-19T05:08:41;98425.71;;;5.86;67.78
51926;BME280;37952;51.938;15.480;2023-10-19T05:11:44;98418.67;;;5.84;68.07
51926;BME280;37952;51.938;15.480;2023-10-19T05:14:48;98417.77;;;5.84;68.14
51926;BME280;37952;51.938;15.480;2023-10-19T05:17:51;98413.70;;;5.85;68.27
51926;BME280;37952;51.938;15.480;2023-10-19T05:20:56;98415.52;;;5.87;68.23
51926;BME280;37952;51.938;15.480;2023-10-19T05:23:59;98416.90;;;5.87;68.12
51926;BME280;37952;51.938;15.480;2023-10-19T05:27:05;98423.83;;;5.88;68.10
51926;BME280;37952;51.938;15.480;2023-10-19T05:30:10;98423.73;;;5.87;68.04
51926;BME280;37952;51.938;15.480;2023-10-19T05:33:13;98424.71;;;5.85;68.22
51926;BME280;37952;51.938;15.480;2023-10-19T05:36:16;98437.86;;;5.93;68.31
51926;BME280;37952;51.938;15.480;2023-10-19T05:39:20;98440.35;;;5.98;68.30
51926;BME280;37952;51.938;15.480;2023-10-19T05:42:23;98450.23;;;6.02;68.19
51926;BME280;37952;51.938;15.480;2023-10-19T05:45:26;98457.75;;;6.06;68.18
51926;BME280;37952;51.938;15.480;2023-10-19T05:48:31;98455.86;;;6.05;68.12
51926;BME280;37952;51.938;15.480;2023-10-19T05:51:33;98453.13;;;6.04;68.04
51926;BME280;37952;51.938;15.480;2023-10-19T05:54:36;98457.08;;;6.02;68.03
51926;BME280;37952;51.938;15.480;2023-10-19T05:57:40;98451.59;;;6.02;68.29
51926;BME280;37952;51.938;15.480;2023-10-19T06:00:43;98451.91;;;6.07;68.43
51926;BME280;37952;51.938;15.480;2023-10-19T06:03:46;98452.02;;;6.13;68.57
51926;BME280;37952;51.938;15.480;2023-10-19T06:06:49;98454.02;;;6.18;68.34
51926;BME280;37952;51.938;15.480;2023-10-19T06:09:52;98453.11;;;6.21;68.21
51926;BME280;37952;51.938;15.480;2023-10-19T06:12:55;98450.62;;;6.22;68.06
51926;BME280;37952;51.938;15.480;2023-10-19T06:15:58;98446.31;;;6.21;68.09
51926;BME280;37952;51.938;15.480;2023-10-19T06:19:01;98443.88;;;6.20;68.09
51926;BME280;37952;51.938;15.480;2023-10-19T06:22:05;98446.35;;;6.20;68.27
51926;BME280;37952;51.938;15.480;2023-10-19T06:25:08;98444.02;;;6.24;68.43
51926;BME280;37952;51.938;15.480;2023-10-19T06:28:11;98444.40;;;6.26;68.39
51926;BME280;37952;51.938;15.480;2023-10-19T06:31:14;98441.64;;;6.31;68.37
51926;BME280;37952;51.938;15.480;2023-10-19T06:34:18;98440.93;;;6.31;68.20
51926;BME280;37952;51.938;15.480;2023-10-19T06:37:21;98438.02;;;6.27;68.13
51926;BME280;37952;51.938;15.480;2023-10-19T06:40:24;98433.09;;;6.22;68.19
51926;BME280;37952;51.938;15.480;2023-10-19T06:43:29;98421.27;;;6.21;68.31
51926;BME280;37952;51.938;15.480;2023-10-19T06:46:35;98400.94;;;6.21;68.46
51926;BME280;37952;51.938;15.480;2023-10-19T06:49:39;98397.15;;;6.29;68.58
51926;BME280;37952;51.938;15.480;2023-10-19T06:52:43;98400.25;;;6.32;68.37
51926;BME280;37952;51.938;15.480;2023-10-19T06:55:46;98387.48;;;6.32;68.37
51926;BME280;37952;51.938;15.480;2023-10-19T06:58:50;98377.29;;;6.30;68.36
51926;BME280;37952;51.938;15.480;2023-10-19T07:01:53;98364.35;;;6.27;68.29
51926;BME280;37952;51.938;15.480;2023-10-19T07:04:56;98358.45;;;6.26;68.36
51926;BME280;37952;51.938;15.480;2023-10-19T07:08:00;98354.41;;;6.33;68.70
51926;BME280;37952;51.938;15.480;2023-10-19T07:11:04;98353.47;;;6.41;68.69
51926;BME280;37952;51.938;15.480;2023-10-19T07:14:08;98358.27;;;6.43;68.44
51926;BME280;37952;51.938;15.480;2023-10-19T07:17:12;98359.11;;;6.43;68.44
51926;BME280;37952;51.938;15.480;2023-10-19T07:20:16;98355.85;;;6.42;68.32
51926;BME280;37952;51.938;15.480;2023-10-19T07:23:29;98347.21;;;6.41;68.23
51926;BME280;37952;51.938;15.480;2023-10-19T07:26:32;98342.61;;;6.39;68.42
51926;BME280;37952;51.938;15.480;2023-10-19T07:29:36;98344.03;;;6.44;68.66
51926;BME280;37952;51.938;15.480;2023-10-19T07:32:39;98350.70;;;6.46;68.60
51926;BME280;37952;51.938;15.480;2023-10-19T07:35:43;98357.16;;;6.46;68.44
51926;BME280;37952;51.938;15.480;2023-10-19T07:38:46;98359.66;;;6.48;68.38
51926;BME280;37952;51.938;15.480;2023-10-19T07:41:50;98357.94;;;6.48;68.35
51926;BME280;37952;51.938;15.480;2023-10-19T07:44:53;98361.52;;;6.44;68.35
51926;BME280;37952;51.938;15.480;2023-10-19T07:47:57;98369.71;;;6.42;68.52
51926;BME280;37952;51.938;15.480;2023-10-19T07:51:09;98374.83;;;6.44;68.65
51926;BME280;37952;51.938;15.480;2023-10-19T07:54:14;98380.74;;;6.44;68.72
51926;BME280;37952;51.938;15.480;2023-10-19T07:57:16;98393.80;;;6.45;68.72
51926;BME280;37952;51.938;15.480;2023-10-19T08:00:20;98395.52;;;6.48;68.61
51926;BME280;37952;51.938;15.480;2023-10-19T08:03:23;98389.42;;;6.50;68.71
51926;BME280;37952;51.938;15.480;2023-10-19T08:06:26;98382.64;;;6.50;68.76
51926;BME280;37952;51.938;15.480;2023-10-19T08:09:29;98379.60;;;6.54;68.91
51926;BME280;37952;51.938;15.480;2023-10-19T08:12:39;98375.79;;;6.61;69.07
51926;BME280;37952;51.938;15.480;2023-10-19T08:15:45;98379.81;;;6.67;69.12
51926;BME280;37952;51.938;15.480;2023-10-19T08:18:47;98373.49;;;6.70;69.21
51926;BME280;37952;51.938;15.480;2023-10-19T08:21:51;98369.66;;;6.72;69.18
51926;BME280;37952;51.938;15.480;2023-10-19T08:24:54;98363.75;;;6.73;69.08
51926;BME280;37952;51.938;15.480;2023-10-19T08:27:57;98356.92;;;6.73;69.22
51926;BME280;37952;51.938;15.480;2023-10-19T08:31:00;98353.04;;;6.77;69.48
51926;BME280;37952;51.938;15.480;2023-10-19T08:34:04;98345.81;;;6.80;69.47
51926;BME280;37952;51.938;15.480;2023-10-19T08:37:07;98343.83;;;6.81;69.48
51926;BME280;37952;51.938;15.480;2023-10-19T08:40:11;98333.36;;;6.80;69.60
51926;BME280;37952;51.938;15.480;2023-10-19T08:43:18;98322.70;;;6.72;69.48
51926;BME280;37952;51.938;15.480;2023-10-19T08:46:21;98317.96;;;6.65;69.97
51926;BME280;37952;51.938;15.480;2023-10-19T08:49:24;98308.52;;;6.62;70.16
51926;BME280;37952;51.938;15.480;2023-10-19T08:52:29;98305.67;;;6.60;70.26
51926;BME280;37952;51.938;15.480;2023-10-19T08:55:32;98304.08;;;6.58;70.36
51926;BME280;37952;51.938;15.480;2023-10-19T08:58:50;98299.23;;;6.57;70.44
51926;BME280;37952;51.938;15.480;2023-10-19T09:02:01;98300.03;;;6.55;70.61
51926;BME280;37952;51.938;15.480;2023-10-19T09:05:06;98306.30;;;6.56;70.81
51926;BME280;37952;51.938;15.480;2023-10-19T09:08:14;98310.30;;;6.59;70.64
51926;BME280;37952;51.938;15.480;2023-10-19T09:11:17;98314.44;;;6.60;70.84
51926;BME280;37952;51.938;15.480;2023-10-19T09:14:41;98326.13;;;6.58;70.80
51926;BME280;37952;51.938;15.480;2023-10-19T09:17:46;98336.48;;;6.62;70.91
51926;BME280;37952;51.938;15.480;2023-10-19T09:20:52;98346.47;;;6.68;70.88
51926;BME280;37952;51.938;15.480;2023-10-19T09:23:56;98345.66;;;6.72;70.92
51926;BME280;37952;51.938;15.480;2023-10-19T09:27:02;98344.61;;;6.77;70.97
51926;BME280;37952;51.938;15.480;2023-10-19T09:30:07;98351.89;;;6.83;71.15
51926;BME280;37952;51.938;15.480;2023-10-19T09:33:13;98352.52;;;6.90;70.98
51926;BME280;37952;51.938;15.480;2023-10-19T09:36:17;98340.27;;;6.97;71.14
51926;BME280;37952;51.938;15.480;2023-10-19T09:39:21;98330.58;;;7.04;71.08
51926;BME280;37952;51.938;15.480;2023-10-19T09:42:29;98312.35;;;7.11;71.17
51926;BME280;37952;51.938;15.480;2023-10-19T09:45:37;98287.16;;;7.13;71.17
51926;BME280;37952;51.938;15.480;2023-10-19T09:48:48;98285.02;;;7.14;71.33
51926;BME280;37952;51.938;15.480;2023-10-19T09:51:51;98333.27;;;7.13;71.53
51926;BME280;37952;51.938;15.480;2023-10-19T09:58:26;98306.96;;;7.18;71.59
51926;BME280;37952;51.938;15.480;2023-10-19T10:08:46;98270.43;;;7.09;72.11
51926;BME280;37952;51.938;15.480;2023-10-19T10:11:53;98270.17;;;7.13;72.14
51926;BME280;37952;51.938;15.480;2023-10-19T10:15:01;98263.23;;;7.17;72.13
51926;BME280;37952;51.938;15.480;2023-10-19T10:18:12;98250.27;;;7.17;72.14
51926;BME280;37952;51.938;15.480;2023-10-19T10:21:20;98253.14;;;7.11;72.43
51926;BME280;37952;51.938;15.480;2023-10-19T10:24:23;98255.46;;;7.08;72.51
51926;BME280;37952;51.938;15.480;2023-10-19T10:27:26;98256.70;;;7.05;72.61
51926;BME280;37952;51.938;15.480;2023-10-19T10:30:29;98254.48;;;7.04;72.60
51926;BME280;37952;51.938;15.480;2023-10-19T10:33:42;98255.36;;;7.07;72.52
51926;BME280;37952;51.938;15.480;2023-10-19T10:37:02;98263.13;;;7.11;72.54
51926;BME280;37952;51.938;15.480;2023-10-19T10:40:06;98250.91;;;7.13;72.59
51926;BME280;37952;51.938;15.480;2023-10-19T10:43:09;98227.27;;;7.15;72.62
51926;BME280;37952;51.938;15.480;2023-10-19T10:46:13;98218.20;;;7.17;72.73
51926;BME280;37952;51.938;15.480;2023-10-19T10:49:16;98229.04;;;7.20;72.72
51926;BME280;37952;51.938;15.480;2023-10-19T10:52:35;98235.30;;;7.20;72.59
51926;BME280;37952;51.938;15.480;2023-10-19T10:55:38;98231.39;;;7.24;72.83
51926;BME280;37952;51.938;15.480;2023-10-19T10:58:42;98227.59;;;7.28;72.75
51926;BME280;37952;51.938;15.480;2023-10-19T11:01:45;98228.98;;;7.33;72.85
51926;BME280;37952;51.938;15.480;2023-10-19T11:04:48;98221.93;;;7.36;72.72
51926;BME280;37952;51.938;15.480;2023-10-19T11:08:11;98216.67;;;7.39;72.82
51926;BME280;37952;51.938;15.480;2023-10-19T11:11:19;98194.04;;;7.39;73.04
51926;BME280;37952;51.938;15.480;2023-10-19T11:14:23;98190.75;;;7.41;73.13
51926;BME280;37952;51.938;15.480;2023-10-19T11:17:31;98184.44;;;7.43;73.16
51926;BME280;37952;51.938;15.480;2023-10-19T11:20:34;98186.63;;;7.46;73.27
51926;BME280;37952;51.938;15.480;2023-10-19T11:23:48;98184.92;;;7.51;73.30
51926;BME280;37952;51.938;15.480;2023-10-19T11:26:52;98180.30;;;7.54;73.23
51926;BME280;37952;51.938;15.480;2023-10-19T11:29:57;98178.24;;;7.54;73.34
51926;BME280;37952;51.938;15.480;2023-10-19T11:33:01;98174.61;;;7.48;73.48
51926;BME280;37952;51.938;15.480;2023-10-19T11:36:05;98176.25;;;7.47;73.52
51926;BME280;37952;51.938;15.480;2023-10-19T11:39:08;98168.95;;;7.44;73.54
51926;BME280;37952;51.938;15.480;2023-10-19T11:42:14;98165.98;;;7.42;73.49
51926;BME280;37952;51.938;15.480;2023-10-19T11:45:18;98155.70;;;7.43;73.62
51926;BME280;37952;51.938;15.480;2023-10-19T11:48:21;98157.71;;;7.42;73.76
51926;BME280;37952;51.938;15.480;2023-10-19T11:51:26;98163.77;;;7.43;73.88
51926;BME280;37952;51.938;15.480;2023-10-19T11:54:29;98169.14;;;7.41;73.77
51926;BME280;37952;51.938;15.480;2023-10-19T11:57:32;98171.88;;;7.45;73.80
51926;BME280;37952;51.938;15.480;2023-10-19T12:00:35;98166.77;;;7.50;73.96
51926;BME280;37952;51.938;15.480;2023-10-19T12:03:41;98155.89;;;7.52;74.05
51926;BME280;37952;51.938;15.480;2023-10-19T12:06:44;98152.81;;;7.49;74.02
51926;BME280;37952;51.938;15.480;2023-10-19T12:09:48;98155.70;;;7.48;74.06
51926;BME280;37952;51.938;15.480;2023-10-19T12:12:52;98147.16;;;7.49;74.24
51926;BME280;37952;51.938;15.480;2023-10-19T12:16:03;98134.06;;;7.54;74.31
51926;BME280;37952;51.938;15.480;2023-10-19T12:19:07;98133.74;;;7.56;74.13
51926;BME280;37952;51.938;15.480;2023-10-19T12:22:10;98125.95;;;7.59;74.29
51926;BME280;37952;51.938;15.480;2023-10-19T12:25:14;98118.84;;;7.65;74.33
51926;BME280;37952;51.938;15.480;2023-10-19T12:28:18;98129.84;;;7.66;74.31
51926;BME280;37952;51.938;15.480;2023-10-19T12:31:21;98122.59;;;7.64;74.20
51926;BME280;37952;51.938;15.480;2023-10-19T12:34:26;98108.20;;;7.67;74.23
51926;BME280;37952;51.938;15.480;2023-10-19T12:37:33;98107.27;;;7.67;74.42
51926;BME280;37952;51.938;15.480;2023-10-19T12:40:36;98102.10;;;7.68;74.52
51926;BME280;37952;51.938;15.480;2023-10-19T12:43:40;98096.52;;;7.70;74.53
51926;BME280;37952;51.938;15.480;2023-10-19T12:46:42;98106.84;;;7.76;74.50
51926;BME280;37952;51.938;15.480;2023-10-19T12:49:46;98105.92;;;7.81;74.60
51926;BME280;37952;51.938;15.480;2023-10-19T12:52:49;98098.98;;;7.82;74.69
51926;BME280;37952;51.938;15.480;2023-10-19T12:55:52;98097.64;;;7.81;74.55
51926;BME280;37952;51.938;15.480;2023-10-19T12:58:55;98108.98;;;7.79;74.72
51926;BME280;37952;51.938;15.480;2023-10-19T13:01:58;98122.27;;;7.78;74.78
51926;BME280;37952;51.938;15.480;2023-10-19T13:05:02;98121.23;;;7.75;74.83
51926;BME280;37952;51.938;15.480;2023-10-19T13:08:13;98116.88;;;7.75;74.84
51926;BME280;37952;51.938;15.480;2023-10-19T13:11:16;98108.67;;;7.74;74.78
51926;BME280;37952;51.938;15.480;2023-10-19T13:14:20;98104.89;;;7.76;74.93
51926;BME280;37952;51.938;15.480;2023-10-19T13:17:23;98100.75;;;7.75;74.81
51926;BME280;37952;51.938;15.480;2023-10-19T13:20:28;98103.89;;;7.73;75.06
51926;BME280;37952;51.938;15.480;2023-10-19T13:23:37;98100.34;;;7.71;75.01
51926;BME280;37952;51.938;15.480;2023-10-19T13:26:40;98096.67;;;7.76;75.08
51926;BME280;37952;51.938;15.480;2023-10-19T13:29:44;98096.29;;;7.80;75.28
51926;BME280;37952;51.938;15.480;2023-10-19T13:32:49;98093.14;;;7.83;75.02
51926;BME280;37952;51.938;15.480;2023-10-19T13:35:52;98096.83;;;7.85;75.06
51926;BME280;37952;51.938;15.480;2023-10-19T13:38:55;98102.35;;;7.88;75.17
51926;BME280;37952;51.938;15.480;2023-10-19T13:41:58;98112.38;;;7.93;75.17
51926;BME280;37952;51.938;15.480;2023-10-19T13:45:01;98114.11;;;7.93;75.19
51926;BME280;37952;51.938;15.480;2023-10-19T13:48:05;98115.45;;;7.92;75.14
51926;BME280;37952;51.938;15.480;2023-10-19T13:51:08;98118.48;;;7.91;75.22
51926;BME280;37952;51.938;15.480;2023-10-19T13:54:18;98106.77;;;7.88;75.19
51926;BME280;37952;51.938;15.480;2023-10-19T13:57:21;98095.10;;;7.87;75.21
51926;BME280;37952;51.938;15.480;2023-10-19T14:00:24;98090.25;;;7.86;75.25
51926;BME280;37952;51.938;15.480;2023-10-19T14:03:32;98084.96;;;7.89;75.42
51926;BME280;37952;51.938;15.480;2023-10-19T14:06:36;98085.70;;;7.88;75.26
51926;BME280;37952;51.938;15.480;2023-10-19T14:09:40;98085.11;;;7.89;75.29
51926;BME280;37952;51.938;15.480;2023-10-19T14:12:43;98082.63;;;7.87;75.24
51926;BME280;37952;51.938;15.480;2023-10-19T14:15:46;98079.03;;;7.88;75.28
51926;BME280;37952;51.938;15.480;2023-10-19T14:18:49;98074.47;;;7.91;75.40
51926;BME280;37952;51.938;15.480;2023-10-19T14:21:52;98070.89;;;7.89;75.30
51926;BME280;37952;51.938;15.480;2023-10-19T14:24:55;98062.77;;;7.90;75.27
51926;BME280;37952;51.938;15.480;2023-10-19T14:27:58;98058.38;;;7.93;75.54
51926;BME280;37952;51.938;15.480;2023-10-19T14:31:04;98054.54;;;7.92;75.49
51926;BME280;37952;51.938;15.480;2023-10-19T14:34:06;98056.89;;;7.91;75.59
51926;BME280;37952;51.938;15.480;2023-10-19T14:37:11;98058.77;;;7.87;75.65
51926;BME280;37952;51.938;15.480;2023-10-19T14:40:25;98053.95;;;7.88;75.84
51926;BME280;37952;51.938;15.480;2023-10-19T14:43:28;98054.41;;;7.87;75.90
51926;BME280;37952;51.938;15.480;2023-10-19T14:46:35;98053.67;;;7.83;75.78
51926;BME280;37952;51.938;15.480;2023-10-19T14:49:38;98050.75;;;7.86;75.82
51926;BME280;37952;51.938;15.480;2023-10-19T14:52:42;98051.41;;;7.90;76.03
51926;BME280;37952;51.938;15.480;2023-10-19T14:55:45;98049.45;;;7.90;76.04
51926;BME280;37952;51.938;15.480;2023-10-19T14:58:48;98050.64;;;7.90;76.04
51926;BME280;37952;51.938;15.480;2023-10-19T15:01:52;98049.33;;;7.91;76.02
51926;BME280;37952;51.938;15.480;2023-10-19T15:04:56;98045.16;;;7.93;76.26
51926;BME280;37952;51.938;15.480;2023-10-19T15:07:59;98040.77;;;7.93;76.19
51926;BME280;37952;51.938;15.480;2023-10-19T15:11:02;98041.06;;;7.94;76.24
51926;BME280;37952;51.938;15.480;2023-10-19T15:14:05;98036.73;;;7.93;76.31
51926;BME280;37952;51.938;15.480;2023-10-19T15:17:08;98028.94;;;7.94;76.39
51926;BME280;37952;51.938;15.480;2023-10-19T15:20:13;98028.17;;;7.95;76.43
51926;BME280;37952;51.938;15.480;2023-10-19T15:23:20;98027.94;;;7.96;76.43
51926;BME280;37952;51.938;15.480;2023-10-19T15:26:23;98029.50;;;7.94;76.41
51926;BME280;37952;51.938;15.480;2023-10-19T15:29:26;98026.72;;;7.98;76.50
51926;BME280;37952;51.938;15.480;2023-10-19T15:32:29;98025.95;;;8.01;76.53
51926;BME280;37952;51.938;15.480;2023-10-19T15:35:33;98032.83;;;8.03;76.54
51926;BME280;37952;51.938;15.480;2023-10-19T15:38:42;98035.90;;;8.04;76.54
51926;BME280;37952;51.938;15.480;2023-10-19T15:41:46;98044.98;;;8.05;76.56
51926;BME280;37952;51.938;15.480;2023-10-19T15:44:50;98041.79;;;8.05;76.57
51926;BME280;37952;51.938;15.480;2023-10-19T15:47:53;98048.20;;;8.04;76.57
51926;BME280;37952;51.938;15.480;2023-10-19T15:50:59;98052.21;;;8.00;76.53
51926;BME280;37952;51.938;15.480;2023-10-19T15:54:03;98053.36;;;7.98;76.66
51926;BME280;37952;51.938;15.480;2023-10-19T15:57:07;98061.55;;;8.02;76.79
51926;BME280;37952;51.938;15.480;2023-10-19T16:00:11;98061.93;;;8.01;76.72
51926;BME280;37952;51.938;15.480;2023-10-19T16:03:18;98053.17;;;8.01;76.79
51926;BME280;37952;51.938;15.480;2023-10-19T16:06:21;98049.42;;;8.04;76.83
51926;BME280;37952;51.938;15.480;2023-10-19T16:09:25;98040.46;;;8.02;77.01
51926;BME280;37952;51.938;15.480;2023-10-19T16:12:28;98041.40;;;7.99;76.87
51926;BME280;37952;51.938;15.480;2023-10-19T16:15:33;98046.40;;;7.97;76.95
51926;BME280;37952;51.938;15.480;2023-10-19T16:18:36;98045.33;;;7.96;77.04
51926;BME280;37952;51.938;15.480;2023-10-19T16:21:39;98036.40;;;7.95;77.02
51926;BME280;37952;51.938;15.480;2023-10-19T16:24:45;98029.30;;;7.89;77.05
51926;BME280;37952;51.938;15.480;2023-10-19T16:27:48;98028.11;;;7.85;77.21
51926;BME280;37952;51.938;15.480;2023-10-19T16:30:50;98030.50;;;7.83;77.42